Pagina principale
METAR-TAF:

METAR-TAF

Aeroporti :

Assuan, Egitto

latitudine: 23-58N, longitudine: 032-47E, altezza: 200 m

Osservazione

Il bollettino è stato emesso 1 ora e 54 minuti fa, alle 05:00 UTC
Vento 3 kt da nord
Temperature 34°C
Umidità 13%
Pressione 1006 hPa
Visibilità 10 km o più
nessuna nube inferiore a 1500 m e nessun cumulonembo

METAR: HESN 180500Z 36003KT CAVOK 34/02 Q1006 NOSIG

Ora: 08:54 (06:54 UTC)

Previsione

Il bollettino è stato emesso 1 ora e 54 minuti fa, alle 05:00 UTC
Previsione valida dal 18 alle 06 UTC al 19 alle 12 UTC
Vento 7 kt da est/nord-est
Visibilità 10 km o più
nessuna nube inferiore a 1500 m e nessun cumulonembo
Temporaneamente
dal 18 alle 06 UTC al 18 alle 08 UTC
Vento 3 kt da direzioni variabili
Visibilità: 4000 m
foschia

TAF: HESN 180500Z 1806/1912 06007KT CAVOK TEMPO 1806/1808 VRB03KT 4000 HZ NSC

Osservazioni e previsioni meteorologiche di più di 4000 aeroporti (messaggi METAR e TAF).

Le stazioni disponibili sono rappresentate dai dischi gialli e rossi sulla carta.

Puntare il mouse per vedere il nome della stazione.

Clicca sopra per visualizzare le osservazioni e previsioni meteorologiche.

Per cambiare la mappa : fare clic sui pulsanti verdi con una croce nera per ingrandire, il pulsante verde con un trattino per diminuire, o sulla freccia verde per le mappe adiacenti.


METAR-TAF: